sensor_id;sensor_type;location;lat;lon;timestamp;temperature;humidity
14182;DHT22;7171;50.936;6.764;2023-01-09T00:00:50;9.50;99.90
14182;DHT22;7171;50.936;6.764;2023-01-09T00:03:18;9.50;99.90
14182;DHT22;7171;50.936;6.764;2023-01-09T00:05:45;9.50;99.90
14182;DHT22;7171;50.936;6.764;2023-01-09T00:08:12;9.50;99.90
14182;DHT22;7171;50.936;6.764;2023-01-09T00:10:38;9.40;99.90
14182;DHT22;7171;50.936;6.764;2023-01-09T00:13:05;9.40;99.90
14182;DHT22;7171;50.936;6.764;2023-01-09T00:15:32;9.40;99.90
14182;DHT22;7171;50.936;6.764;2023-01-09T00:17:58;9.30;99.90
14182;DHT22;7171;50.936;6.764;2023-01-09T00:20:27;9.30;99.90
14182;DHT22;7171;50.936;6.764;2023-01-09T00:22:53;9.20;99.90
14182;DHT22;7171;50.936;6.764;2023-01-09T00:25:20;9.20;99.90
14182;DHT22;7171;50.936;6.764;2023-01-09T00:30:14;9.00;99.90
14182;DHT22;7171;50.936;6.764;2023-01-09T00:32:41;9.10;99.90
14182;DHT22;7171;50.936;6.764;2023-01-09T00:35:10;9.10;99.90
14182;DHT22;7171;50.936;6.764;2023-01-09T00:37:40;9.00;99.90
14182;DHT22;7171;50.936;6.764;2023-01-09T00:40:08;9.00;99.90
14182;DHT22;7171;50.936;6.764;2023-01-09T00:42:35;8.90;99.90
14182;DHT22;7171;50.936;6.764;2023-01-09T00:45:07;8.90;99.90
14182;DHT22;7171;50.936;6.764;2023-01-09T00:47:36;8.90;99.90
14182;DHT22;7171;50.936;6.764;2023-01-09T00:50:06;8.90;99.90
14182;DHT22;7171;50.936;6.764;2023-01-09T00:52:34;8.90;99.90
14182;DHT22;7171;50.936;6.764;2023-01-09T00:55:05;8.90;99.90
14182;DHT22;7171;50.936;6.764;2023-01-09T00:57:32;8.90;99.90
14182;DHT22;7171;50.936;6.764;2023-01-09T00:59:59;8.90;99.90
14182;DHT22;7171;50.936;6.764;2023-01-09T01:02:26;8.90;99.90
14182;DHT22;7171;50.936;6.764;2023-01-09T01:04:53;8.90;99.90
14182;DHT22;7171;50.936;6.764;2023-01-09T01:07:37;8.80;99.90
14182;DHT22;7171;50.936;6.764;2023-01-09T01:10:08;8.80;99.90
14182;DHT22;7171;50.936;6.764;2023-01-09T01:12:35;8.80;99.90
14182;DHT22;7171;50.936;6.764;2023-01-09T01:15:03;8.80;99.90
14182;DHT22;7171;50.936;6.764;2023-01-09T01:17:29;8.70;99.90
14182;DHT22;7171;50.936;6.764;2023-01-09T01:19:56;8.70;99.90
14182;DHT22;7171;50.936;6.764;2023-01-09T01:22:23;8.70;99.90
14182;DHT22;7171;50.936;6.764;2023-01-09T01:24:49;8.70;99.90
14182;DHT22;7171;50.936;6.764;2023-01-09T01:27:17;8.80;99.90
14182;DHT22;7171;50.936;6.764;2023-01-09T01:29:44;8.80;99.90
14182;DHT22;7171;50.936;6.764;2023-01-09T01:32:11;8.80;99.90
14182;DHT22;7171;50.936;6.764;2023-01-09T01:34:38;8.80;99.90
14182;DHT22;7171;50.936;6.764;2023-01-09T01:37:04;8.80;99.90
14182;DHT22;7171;50.936;6.764;2023-01-09T01:39:31;8.90;99.90
14182;DHT22;7171;50.936;6.764;2023-01-09T01:41:58;8.90;99.90
14182;DHT22;7171;50.936;6.764;2023-01-09T01:45:02;8.90;99.90
14182;DHT22;7171;50.936;6.764;2023-01-09T01:47:34;8.90;99.90
14182;DHT22;7171;50.936;6.764;2023-01-09T01:50:05;9.00;99.90
14182;DHT22;7171;50.936;6.764;2023-01-09T01:52:33;9.00;99.90
14182;DHT22;7171;50.936;6.764;2023-01-09T01:55:02;9.00;99.90
14182;DHT22;7171;50.936;6.764;2023-01-09T01:57:30;9.00;99.90
14182;DHT22;7171;50.936;6.764;2023-01-09T01:59:57;9.00;99.90
14182;DHT22;7171;50.936;6.764;2023-01-09T02:02:29;9.00;99.90
14182;DHT22;7171;50.936;6.764;2023-01-09T02:04:58;9.00;99.90
14182;DHT22;7171;50.936;6.764;2023-01-09T02:07:25;9.10;99.90
14182;DHT22;7171;50.936;6.764;2023-01-09T02:09:52;9.10;99.90
14182;DHT22;7171;50.936;6.764;2023-01-09T02:12:21;9.10;99.90
14182;DHT22;7171;50.936;6.764;2023-01-09T02:17:31;9.10;99.90
14182;DHT22;7171;50.936;6.764;2023-01-09T02:23:23;9.10;99.90
14182;DHT22;7171;50.936;6.764;2023-01-09T02:26:22;9.20;99.90
14182;DHT22;7171;50.936;6.764;2023-01-09T02:29:18;9.20;99.90
14182;DHT22;7171;50.936;6.764;2023-01-09T02:31:54;9.10;99.90
14182;DHT22;7171;50.936;6.764;2023-01-09T02:34:30;9.10;99.90
14182;DHT22;7171;50.936;6.764;2023-01-09T02:37:04;9.00;99.90
14182;DHT22;7171;50.936;6.764;2023-01-09T02:39:37;9.00;99.90
14182;DHT22;7171;50.936;6.764;2023-01-09T02:42:12;9.00;99.90
14182;DHT22;7171;50.936;6.764;2023-01-09T02:44:41;9.00;99.90
14182;DHT22;7171;50.936;6.764;2023-01-09T02:47:35;9.00;99.90
14182;DHT22;7171;50.936;6.764;2023-01-09T02:50:04;8.90;99.90
14182;DHT22;7171;50.936;6.764;2023-01-09T02:52:55;8.90;99.90
14182;DHT22;7171;50.936;6.764;2023-01-09T02:55:34;8.90;99.90
14182;DHT22;7171;50.936;6.764;2023-01-09T02:58:10;8.90;99.90
14182;DHT22;7171;50.936;6.764;2023-01-09T03:00:44;8.90;99.90
14182;DHT22;7171;50.936;6.764;2023-01-09T03:03:20;8.90;99.90
14182;DHT22;7171;50.936;6.764;2023-01-09T03:05:55;8.90;99.90
14182;DHT22;7171;50.936;6.764;2023-01-09T03:08:27;8.90;99.90
14182;DHT22;7171;50.936;6.764;2023-01-09T03:10:58;8.90;99.90
14182;DHT22;7171;50.936;6.764;2023-01-09T03:13:30;8.80;99.90
14182;DHT22;7171;50.936;6.764;2023-01-09T03:16:00;8.80;99.90
14182;DHT22;7171;50.936;6.764;2023-01-09T03:18:30;8.80;99.90
14182;DHT22;7171;50.936;6.764;2023-01-09T03:20:58;8.70;99.90
14182;DHT22;7171;50.936;6.764;2023-01-09T03:25:52;8.60;99.90
14182;DHT22;7171;50.936;6.764;2023-01-09T03:28:24;8.60;99.90
14182;DHT22;7171;50.936;6.764;2023-01-09T03:30:51;8.50;99.90
14182;DHT22;7171;50.936;6.764;2023-01-09T03:33:18;8.50;99.90
14182;DHT22;7171;50.936;6.764;2023-01-09T03:35:46;8.50;99.90
14182;DHT22;7171;50.936;6.764;2023-01-09T03:38:13;8.50;99.90
14182;DHT22;7171;50.936;6.764;2023-01-09T03:40:40;8.40;99.90
14182;DHT22;7171;50.936;6.764;2023-01-09T03:43:08;8.40;99.90
14182;DHT22;7171;50.936;6.764;2023-01-09T03:45:34;8.50;99.90
14182;DHT22;7171;50.936;6.764;2023-01-09T03:48:01;8.40;99.90
14182;DHT22;7171;50.936;6.764;2023-01-09T03:50:28;8.40;99.90
14182;DHT22;7171;50.936;6.764;2023-01-09T03:52:56;8.50;99.90
14182;DHT22;7171;50.936;6.764;2023-01-09T03:55:23;8.50;99.90
14182;DHT22;7171;50.936;6.764;2023-01-09T03:57:49;8.50;99.90
14182;DHT22;7171;50.936;6.764;2023-01-09T04:00:17;8.50;99.90
14182;DHT22;7171;50.936;6.764;2023-01-09T04:02:44;8.70;99.90
14182;DHT22;7171;50.936;6.764;2023-01-09T04:05:11;8.50;99.90
14182;DHT22;7171;50.936;6.764;2023-01-09T04:07:38;8.50;99.90
14182;DHT22;7171;50.936;6.764;2023-01-09T04:10:08;8.50;99.90
14182;DHT22;7171;50.936;6.764;2023-01-09T04:12:34;8.60;99.90
14182;DHT22;7171;50.936;6.764;2023-01-09T04:15:01;8.60;99.90
14182;DHT22;7171;50.936;6.764;2023-01-09T04:17:28;8.60;99.90
14182;DHT22;7171;50.936;6.764;2023-01-09T04:19:55;8.50;99.90
14182;DHT22;7171;50.936;6.764;2023-01-09T04:22:23;8.60;99.90
14182;DHT22;7171;50.936;6.764;2023-01-09T04:24:50;8.60;99.90
14182;DHT22;7171;50.936;6.764;2023-01-09T04:27:18;8.50;99.90
14182;DHT22;7171;50.936;6.764;2023-01-09T04:29:44;8.50;99.90
14182;DHT22;7171;50.936;6.764;2023-01-09T04:32:11;8.50;99.90
14182;DHT22;7171;50.936;6.764;2023-01-09T04:34:38;8.40;99.90
14182;DHT22;7171;50.936;6.764;2023-01-09T04:37:04;8.40;99.90
14182;DHT22;7171;50.936;6.764;2023-01-09T04:39:31;8.40;99.90
14182;DHT22;7171;50.936;6.764;2023-01-09T04:41:58;8.40;99.90
14182;DHT22;7171;50.936;6.764;2023-01-09T04:44:26;8.40;99.90
14182;DHT22;7171;50.936;6.764;2023-01-09T04:46:54;8.40;99.90
14182;DHT22;7171;50.936;6.764;2023-01-09T04:49:21;8.40;99.90
14182;DHT22;7171;50.936;6.764;2023-01-09T04:51:48;8.40;99.90
14182;DHT22;7171;50.936;6.764;2023-01-09T04:54:15;8.40;99.90
14182;DHT22;7171;50.936;6.764;2023-01-09T04:56:42;8.40;99.90
14182;DHT22;7171;50.936;6.764;2023-01-09T04:59:08;8.40;99.90
14182;DHT22;7171;50.936;6.764;2023-01-09T05:01:36;8.50;99.90
14182;DHT22;7171;50.936;6.764;2023-01-09T05:04:04;8.50;99.90
14182;DHT22;7171;50.936;6.764;2023-01-09T05:06:31;8.50;99.90
14182;DHT22;7171;50.936;6.764;2023-01-09T05:08:58;8.50;99.90
14182;DHT22;7171;50.936;6.764;2023-01-09T05:11:25;8.50;99.90
14182;DHT22;7171;50.936;6.764;2023-01-09T05:13:53;8.50;99.90
14182;DHT22;7171;50.936;6.764;2023-01-09T05:16:19;8.60;99.90
14182;DHT22;7171;50.936;6.764;2023-01-09T05:18:48;8.60;99.90
14182;DHT22;7171;50.936;6.764;2023-01-09T05:21:14;8.60;99.90
14182;DHT22;7171;50.936;6.764;2023-01-09T05:23:41;8.60;99.90
14182;DHT22;7171;50.936;6.764;2023-01-09T05:26:08;8.70;99.90
14182;DHT22;7171;50.936;6.764;2023-01-09T05:28:34;8.70;99.90
14182;DHT22;7171;50.936;6.764;2023-01-09T05:31:01;8.70;99.90
14182;DHT22;7171;50.936;6.764;2023-01-09T05:33:28;8.70;99.90
14182;DHT22;7171;50.936;6.764;2023-01-09T05:35:56;8.70;99.90
14182;DHT22;7171;50.936;6.764;2023-01-09T05:38:22;8.70;99.90
14182;DHT22;7171;50.936;6.764;2023-01-09T05:40:49;8.70;99.90
14182;DHT22;7171;50.936;6.764;2023-01-09T05:43:16;8.80;99.90
14182;DHT22;7171;50.936;6.764;2023-01-09T05:45:42;8.80;99.90
14182;DHT22;7171;50.936;6.764;2023-01-09T05:48:09;8.80;99.90
14182;DHT22;7171;50.936;6.764;2023-01-09T05:50:36;8.80;99.90
14182;DHT22;7171;50.936;6.764;2023-01-09T05:53:04;8.80;99.90
14182;DHT22;7171;50.936;6.764;2023-01-09T05:55:31;8.80;99.90
14182;DHT22;7171;50.936;6.764;2023-01-09T05:57:58;8.80;99.90
14182;DHT22;7171;50.936;6.764;2023-01-09T06:00:25;8.80;99.90
14182;DHT22;7171;50.936;6.764;2023-01-09T06:02:52;8.90;99.90
14182;DHT22;7171;50.936;6.764;2023-01-09T06:05:18;8.80;99.90
14182;DHT22;7171;50.936;6.764;2023-01-09T06:07:45;8.90;99.90
14182;DHT22;7171;50.936;6.764;2023-01-09T06:10:13;8.90;99.90
14182;DHT22;7171;50.936;6.764;2023-01-09T06:12:41;8.90;99.90
14182;DHT22;7171;50.936;6.764;2023-01-09T06:15:09;8.90;99.90
14182;DHT22;7171;50.936;6.764;2023-01-09T06:17:36;8.90;99.90
14182;DHT22;7171;50.936;6.764;2023-01-09T06:20:04;8.90;99.90
14182;DHT22;7171;50.936;6.764;2023-01-09T06:22:31;8.90;99.90
14182;DHT22;7171;50.936;6.764;2023-01-09T06:24:57;8.90;99.90
14182;DHT22;7171;50.936;6.764;2023-01-09T06:27:25;8.90;99.90
14182;DHT22;7171;50.936;6.764;2023-01-09T06:29:52;8.90;99.90
14182;DHT22;7171;50.936;6.764;2023-01-09T06:32:19;9.00;99.90
14182;DHT22;7171;50.936;6.764;2023-01-09T06:34:45;9.00;99.90
14182;DHT22;7171;50.936;6.764;2023-01-09T06:37:12;9.00;99.90
14182;DHT22;7171;50.936;6.764;2023-01-09T06:39:39;9.00;99.90
14182;DHT22;7171;50.936;6.764;2023-01-09T06:42:05;9.00;99.90
14182;DHT22;7171;50.936;6.764;2023-01-09T06:44:34;9.10;99.90
14182;DHT22;7171;50.936;6.764;2023-01-09T06:47:01;9.00;99.90
14182;DHT22;7171;50.936;6.764;2023-01-09T06:49:28;9.10;99.90
14182;DHT22;7171;50.936;6.764;2023-01-09T06:51:54;9.10;99.90
14182;DHT22;7171;50.936;6.764;2023-01-09T06:54:21;9.10;99.90
14182;DHT22;7171;50.936;6.764;2023-01-09T06:56:48;9.10;99.90
14182;DHT22;7171;50.936;6.764;2023-01-09T06:59:15;9.10;99.90
14182;DHT22;7171;50.936;6.764;2023-01-09T07:01:43;9.10;99.90
14182;DHT22;7171;50.936;6.764;2023-01-09T07:04:09;9.10;99.90
14182;DHT22;7171;50.936;6.764;2023-01-09T07:06:37;9.20;99.90
14182;DHT22;7171;50.936;6.764;2023-01-09T07:09:03;9.20;99.90
14182;DHT22;7171;50.936;6.764;2023-01-09T07:11:30;9.20;99.90
14182;DHT22;7171;50.936;6.764;2023-01-09T07:13:57;9.20;99.90
14182;DHT22;7171;50.936;6.764;2023-01-09T07:16:24;9.20;99.90
14182;DHT22;7171;50.936;6.764;2023-01-09T07:18:52;9.20;99.90
14182;DHT22;7171;50.936;6.764;2023-01-09T07:21:19;9.30;99.90
14182;DHT22;7171;50.936;6.764;2023-01-09T07:23:46;9.30;99.90
14182;DHT22;7171;50.936;6.764;2023-01-09T07:26:12;9.30;99.90
14182;DHT22;7171;50.936;6.764;2023-01-09T07:28:39;9.30;99.90
14182;DHT22;7171;50.936;6.764;2023-01-09T07:31:06;9.30;99.90
14182;DHT22;7171;50.936;6.764;2023-01-09T07:33:33;9.30;99.90
14182;DHT22;7171;50.936;6.764;2023-01-09T07:36:01;9.40;99.90
14182;DHT22;7171;50.936;6.764;2023-01-09T07:38:28;9.40;99.90
14182;DHT22;7171;50.936;6.764;2023-01-09T07:40:55;9.40;99.90
14182;DHT22;7171;50.936;6.764;2023-01-09T07:43:21;9.40;99.90
14182;DHT22;7171;50.936;6.764;2023-01-09T07:45:48;9.40;99.90
14182;DHT22;7171;50.936;6.764;2023-01-09T07:48:14;9.40;99.90
14182;DHT22;7171;50.936;6.764;2023-01-09T07:50:41;9.40;99.90
14182;DHT22;7171;50.936;6.764;2023-01-09T07:53:09;9.40;99.90
14182;DHT22;7171;50.936;6.764;2023-01-09T07:55:36;9.40;99.90
14182;DHT22;7171;50.936;6.764;2023-01-09T07:58:03;9.40;99.90
14182;DHT22;7171;50.936;6.764;2023-01-09T08:00:29;9.40;99.90
14182;DHT22;7171;50.936;6.764;2023-01-09T08:02:56;9.40;99.90
14182;DHT22;7171;50.936;6.764;2023-01-09T08:05:23;9.80;99.90
14182;DHT22;7171;50.936;6.764;2023-01-09T08:07:49;9.40;99.90
14182;DHT22;7171;50.936;6.764;2023-01-09T08:10:18;9.40;99.90
14182;DHT22;7171;50.936;6.764;2023-01-09T08:12:45;9.40;99.90
14182;DHT22;7171;50.936;6.764;2023-01-09T08:15:12;9.50;99.90
14182;DHT22;7171;50.936;6.764;2023-01-09T08:17:40;9.50;99.90
14182;DHT22;7171;50.936;6.764;2023-01-09T08:20:09;9.50;99.90
14182;DHT22;7171;50.936;6.764;2023-01-09T08:22:36;9.50;99.90
14182;DHT22;7171;50.936;6.764;2023-01-09T08:25:04;9.50;99.90
14182;DHT22;7171;50.936;6.764;2023-01-09T08:27:32;9.60;99.90
14182;DHT22;7171;50.936;6.764;2023-01-09T08:29:59;9.60;99.90
14182;DHT22;7171;50.936;6.764;2023-01-09T08:32:26;9.60;99.90
14182;DHT22;7171;50.936;6.764;2023-01-09T08:34:53;9.60;99.90
14182;DHT22;7171;50.936;6.764;2023-01-09T08:37:19;9.60;99.90
14182;DHT22;7171;50.936;6.764;2023-01-09T08:39:46;9.60;99.90
14182;DHT22;7171;50.936;6.764;2023-01-09T08:42:13;9.50;99.90
14182;DHT22;7171;50.936;6.764;2023-01-09T08:44:58;9.50;99.90
14182;DHT22;7171;50.936;6.764;2023-01-09T08:47:48;9.50;99.90
14182;DHT22;7171;50.936;6.764;2023-01-09T08:50:15;9.50;99.90
14182;DHT22;7171;50.936;6.764;2023-01-09T08:52:42;9.40;99.90
14182;DHT22;7171;50.936;6.764;2023-01-09T08:55:09;9.40;99.90
14182;DHT22;7171;50.936;6.764;2023-01-09T08:57:35;9.40;99.90
14182;DHT22;7171;50.936;6.764;2023-01-09T09:00:04;9.40;99.90
14182;DHT22;7171;50.936;6.764;2023-01-09T09:02:31;9.40;99.90
14182;DHT22;7171;50.936;6.764;2023-01-09T09:04:58;9.40;99.90
14182;DHT22;7171;50.936;6.764;2023-01-09T09:07:25;9.40;99.90
14182;DHT22;7171;50.936;6.764;2023-01-09T09:09:51;9.40;99.90
14182;DHT22;7171;50.936;6.764;2023-01-09T09:12:18;9.40;99.90
14182;DHT22;7171;50.936;6.764;2023-01-09T09:14:45;9.40;99.90
14182;DHT22;7171;50.936;6.764;2023-01-09T09:17:31;9.40;99.90
14182;DHT22;7171;50.936;6.764;2023-01-09T09:19:58;9.40;99.90
14182;DHT22;7171;50.936;6.764;2023-01-09T09:22:25;9.40;99.90
14182;DHT22;7171;50.936;6.764;2023-01-09T09:24:52;9.30;99.90
14182;DHT22;7171;50.936;6.764;2023-01-09T09:27:18;9.30;99.90
14182;DHT22;7171;50.936;6.764;2023-01-09T09:29:45;9.30;99.90
14182;DHT22;7171;50.936;6.764;2023-01-09T09:32:12;9.30;99.90
14182;DHT22;7171;50.936;6.764;2023-01-09T09:34:40;9.30;99.90
14182;DHT22;7171;50.936;6.764;2023-01-09T09:37:07;9.30;99.90
14182;DHT22;7171;50.936;6.764;2023-01-09T09:39:33;9.30;99.90
14182;DHT22;7171;50.936;6.764;2023-01-09T09:42:13;9.30;99.90
14182;DHT22;7171;50.936;6.764;2023-01-09T09:45:05;9.40;99.90
14182;DHT22;7171;50.936;6.764;2023-01-09T09:47:42;9.40;99.90
14182;DHT22;7171;50.936;6.764;2023-01-09T09:50:29;9.40;99.90
14182;DHT22;7171;50.936;6.764;2023-01-09T09:53:04;9.40;99.90
14182;DHT22;7171;50.936;6.764;2023-01-09T09:55:33;9.40;99.90
14182;DHT22;7171;50.936;6.764;2023-01-09T09:58:03;9.40;99.90
14182;DHT22;7171;50.936;6.764;2023-01-09T10:00:32;9.50;99.90
14182;DHT22;7171;50.936;6.764;2023-01-09T10:03:01;9.50;99.90
14182;DHT22;7171;50.936;6.764;2023-01-09T10:05:33;9.50;99.90
14182;DHT22;7171;50.936;6.764;2023-01-09T10:08:03;9.60;99.90
14182;DHT22;7171;50.936;6.764;2023-01-09T10:10:32;9.60;99.90
14182;DHT22;7171;50.936;6.764;2023-01-09T10:13:02;9.50;99.90
14182;DHT22;7171;50.936;6.764;2023-01-09T10:15:56;9.50;99.90
14182;DHT22;7171;50.936;6.764;2023-01-09T10:18:30;9.50;99.90
14182;DHT22;7171;50.936;6.764;2023-01-09T10:21:04;9.50;99.90
14182;DHT22;7171;50.936;6.764;2023-01-09T10:23:43;9.50;99.90
14182;DHT22;7171;50.936;6.764;2023-01-09T10:26:17;9.50;99.90
14182;DHT22;7171;50.936;6.764;2023-01-09T10:28:58;9.50;99.90
14182;DHT22;7171;50.936;6.764;2023-01-09T10:31:35;9.50;99.90
14182;DHT22;7171;50.936;6.764;2023-01-09T10:34:14;9.50;99.90
14182;DHT22;7171;50.936;6.764;2023-01-09T10:36:56;9.60;99.90
14182;DHT22;7171;50.936;6.764;2023-01-09T10:39:30;9.60;99.90
14182;DHT22;7171;50.936;6.764;2023-01-09T10:42:04;9.60;99.90
14182;DHT22;7171;50.936;6.764;2023-01-09T10:44:39;9.60;99.90
14182;DHT22;7171;50.936;6.764;2023-01-09T10:47:15;9.60;99.90
14182;DHT22;7171;50.936;6.764;2023-01-09T10:49:43;9.60;99.90
14182;DHT22;7171;50.936;6.764;2023-01-09T10:52:15;9.70;99.90
14182;DHT22;7171;50.936;6.764;2023-01-09T10:54:50;9.70;99.90
14182;DHT22;7171;50.936;6.764;2023-01-09T10:57:27;9.70;99.90
14182;DHT22;7171;50.936;6.764;2023-01-09T10:59:56;9.70;99.90
14182;DHT22;7171;50.936;6.764;2023-01-09T11:02:26;9.80;99.90
14182;DHT22;7171;50.936;6.764;2023-01-09T11:04:54;9.80;99.90
14182;DHT22;7171;50.936;6.764;2023-01-09T11:07:25;9.80;99.90
14182;DHT22;7171;50.936;6.764;2023-01-09T11:09:54;9.80;99.90
14182;DHT22;7171;50.936;6.764;2023-01-09T11:12:26;9.80;99.90
14182;DHT22;7171;50.936;6.764;2023-01-09T11:14:53;9.70;99.90
14182;DHT22;7171;50.936;6.764;2023-01-09T11:17:21;9.70;99.90
14182;DHT22;7171;50.936;6.764;2023-01-09T11:20:01;9.70;99.90
14182;DHT22;7171;50.936;6.764;2023-01-09T11:22:41;9.60;99.90
14182;DHT22;7171;50.936;6.764;2023-01-09T11:25:11;9.60;99.90
14182;DHT22;7171;50.936;6.764;2023-01-09T11:27:38;9.60;99.90
14182;DHT22;7171;50.936;6.764;2023-01-09T11:30:17;9.60;99.90
14182;DHT22;7171;50.936;6.764;2023-01-09T11:32:51;9.60;99.90
14182;DHT22;7171;50.936;6.764;2023-01-09T11:35:24;9.50;99.90
14182;DHT22;7171;50.936;6.764;2023-01-09T11:38:03;9.50;99.90
14182;DHT22;7171;50.936;6.764;2023-01-09T11:40:36;9.50;99.90
14182;DHT22;7171;50.936;6.764;2023-01-09T11:43:12;9.50;99.90
14182;DHT22;7171;50.936;6.764;2023-01-09T11:45:46;9.50;99.90
14182;DHT22;7171;50.936;6.764;2023-01-09T11:48:38;9.60;99.90
14182;DHT22;7171;50.936;6.764;2023-01-09T11:51:20;9.60;99.90
14182;DHT22;7171;50.936;6.764;2023-01-09T11:54:00;9.60;99.90
14182;DHT22;7171;50.936;6.764;2023-01-09T11:56:30;9.50;99.90
14182;DHT22;7171;50.936;6.764;2023-01-09T11:58:58;9.60;99.90
14182;DHT22;7171;50.936;6.764;2023-01-09T12:01:46;9.60;99.90
14182;DHT22;7171;50.936;6.764;2023-01-09T12:04:21;9.60;99.90
14182;DHT22;7171;50.936;6.764;2023-01-09T12:09:47;9.60;99.90
14182;DHT22;7171;50.936;6.764;2023-01-09T12:12:25;9.60;99.90
14182;DHT22;7171;50.936;6.764;2023-01-09T12:15:17;9.60;99.90
14182;DHT22;7171;50.936;6.764;2023-01-09T12:18:02;9.50;99.90
14182;DHT22;7171;50.936;6.764;2023-01-09T12:20:39;9.50;99.90
14182;DHT22;7171;50.936;6.764;2023-01-09T12:23:27;9.50;99.90
14182;DHT22;7171;50.936;6.764;2023-01-09T12:26:06;9.50;99.90
14182;DHT22;7171;50.936;6.764;2023-01-09T12:28:51;9.40;99.90
14182;DHT22;7171;50.936;6.764;2023-01-09T12:31:37;9.40;99.90
14182;DHT22;7171;50.936;6.764;2023-01-09T12:34:20;9.30;99.90
14182;DHT22;7171;50.936;6.764;2023-01-09T12:36:55;9.30;99.90
14182;DHT22;7171;50.936;6.764;2023-01-09T12:39:33;9.20;99.90
14182;DHT22;7171;50.936;6.764;2023-01-09T12:42:23;9.30;99.90
14182;DHT22;7171;50.936;6.764;2023-01-09T12:44:58;9.30;99.90
14182;DHT22;7171;50.936;6.764;2023-01-09T12:47:43;9.30;99.90
14182;DHT22;7171;50.936;6.764;2023-01-09T12:53:21;9.30;99.90
14182;DHT22;7171;50.936;6.764;2023-01-09T12:55:54;9.40;99.90
14182;DHT22;7171;50.936;6.764;2023-01-09T12:58:29;9.40;99.90
14182;DHT22;7171;50.936;6.764;2023-01-09T13:00:58;9.40;99.90
14182;DHT22;7171;50.936;6.764;2023-01-09T13:03:31;9.40;99.90
14182;DHT22;7171;50.936;6.764;2023-01-09T13:06:00;9.40;99.90
14182;DHT22;7171;50.936;6.764;2023-01-09T13:08:31;9.40;99.90
14182;DHT22;7171;50.936;6.764;2023-01-09T13:11:04;9.40;99.90
14182;DHT22;7171;50.936;6.764;2023-01-09T13:13:40;9.40;99.90
14182;DHT22;7171;50.936;6.764;2023-01-09T13:16:12;9.30;99.90
14182;DHT22;7171;50.936;6.764;2023-01-09T13:18:43;9.30;99.90
14182;DHT22;7171;50.936;6.764;2023-01-09T13:21:13;9.30;99.90
14182;DHT22;7171;50.936;6.764;2023-01-09T13:23:45;9.30;99.90
14182;DHT22;7171;50.936;6.764;2023-01-09T13:26:16;9.30;99.90
14182;DHT22;7171;50.936;6.764;2023-01-09T13:28:48;9.30;99.90
14182;DHT22;7171;50.936;6.764;2023-01-09T13:31:43;9.30;99.90
14182;DHT22;7171;50.936;6.764;2023-01-09T13:34:14;9.30;99.90
14182;DHT22;7171;50.936;6.764;2023-01-09T13:36:45;9.30;99.90
14182;DHT22;7171;50.936;6.764;2023-01-09T13:39:20;9.30;99.90
14182;DHT22;7171;50.936;6.764;2023-01-09T13:41:51;9.30;99.90
14182;DHT22;7171;50.936;6.764;2023-01-09T13:44:37;9.30;99.90
14182;DHT22;7171;50.936;6.764;2023-01-09T13:47:14;9.20;99.90
14182;DHT22;7171;50.936;6.764;2023-01-09T13:50:20;9.20;99.90
14182;DHT22;7171;50.936;6.764;2023-01-09T13:52:48;9.20;99.90
14182;DHT22;7171;50.936;6.764;2023-01-09T13:55:27;9.20;99.90
14182;DHT22;7171;50.936;6.764;2023-01-09T13:58:17;9.10;99.90
14182;DHT22;7171;50.936;6.764;2023-01-09T14:00:59;9.00;99.90
14182;DHT22;7171;50.936;6.764;2023-01-09T14:03:33;9.00;99.90
14182;DHT22;7171;50.936;6.764;2023-01-09T14:06:16;9.00;99.90
14182;DHT22;7171;50.936;6.764;2023-01-09T14:08:45;9.00;99.90
14182;DHT22;7171;50.936;6.764;2023-01-09T14:11:18;9.10;99.90
14182;DHT22;7171;50.936;6.764;2023-01-09T14:14:01;9.10;99.90
14182;DHT22;7171;50.936;6.764;2023-01-09T14:16:30;9.10;99.90
14182;DHT22;7171;50.936;6.764;2023-01-09T14:19:02;9.10;99.90
14182;DHT22;7171;50.936;6.764;2023-01-09T14:21:48;9.00;99.90
14182;DHT22;7171;50.936;6.764;2023-01-09T14:24:25;9.10;99.90
14182;DHT22;7171;50.936;6.764;2023-01-09T14:26:54;9.00;99.90
14182;DHT22;7171;50.936;6.764;2023-01-09T14:29:41;9.00;99.90
14182;DHT22;7171;50.936;6.764;2023-01-09T14:32:42;9.00;99.90
14182;DHT22;7171;50.936;6.764;2023-01-09T14:35:24;9.00;99.90
14182;DHT22;7171;50.936;6.764;2023-01-09T14:38:02;8.50;99.90
14182;DHT22;7171;50.936;6.764;2023-01-09T14:40:30;8.90;99.90
14182;DHT22;7171;50.936;6.764;2023-01-09T14:43:03;8.90;99.90
14182;DHT22;7171;50.936;6.764;2023-01-09T14:45:34;9.00;99.90
14182;DHT22;7171;50.936;6.764;2023-01-09T14:48:08;9.10;99.90
14182;DHT22;7171;50.936;6.764;2023-01-09T14:50:40;9.00;99.90
14182;DHT22;7171;50.936;6.764;2023-01-09T14:53:11;9.00;99.90
14182;DHT22;7171;50.936;6.764;2023-01-09T14:55:48;8.70;99.90
14182;DHT22;7171;50.936;6.764;2023-01-09T14:58:21;9.00;99.90
14182;DHT22;7171;50.936;6.764;2023-01-09T15:00:51;9.00;99.90
14182;DHT22;7171;50.936;6.764;2023-01-09T15:03:21;9.00;99.90
14182;DHT22;7171;50.936;6.764;2023-01-09T15:05:49;9.00;99.90
14182;DHT22;7171;50.936;6.764;2023-01-09T15:08:19;8.90;99.90
14182;DHT22;7171;50.936;6.764;2023-01-09T15:10:49;9.00;99.90
14182;DHT22;7171;50.936;6.764;2023-01-09T15:13:18;9.10;99.90
14182;DHT22;7171;50.936;6.764;2023-01-09T15:15:46;9.10;99.90
14182;DHT22;7171;50.936;6.764;2023-01-09T15:18:21;9.10;99.90
14182;DHT22;7171;50.936;6.764;2023-01-09T15:20:53;9.00;99.90
14182;DHT22;7171;50.936;6.764;2023-01-09T15:23:23;9.10;99.90
14182;DHT22;7171;50.936;6.764;2023-01-09T15:25:50;9.00;99.90
14182;DHT22;7171;50.936;6.764;2023-01-09T15:28:29;9.00;99.90
14182;DHT22;7171;50.936;6.764;2023-01-09T15:31:00;9.00;99.90
14182;DHT22;7171;50.936;6.764;2023-01-09T15:33:28;9.00;99.90
14182;DHT22;7171;50.936;6.764;2023-01-09T15:35:55;8.90;99.90
14182;DHT22;7171;50.936;6.764;2023-01-09T15:38:28;8.90;99.90
14182;DHT22;7171;50.936;6.764;2023-01-09T15:40:59;8.80;99.90
14182;DHT22;7171;50.936;6.764;2023-01-09T15:43:26;8.80;99.90
14182;DHT22;7171;50.936;6.764;2023-01-09T15:45:55;8.70;99.90
14182;DHT22;7171;50.936;6.764;2023-01-09T15:48:24;8.80;99.90
14182;DHT22;7171;50.936;6.764;2023-01-09T15:50:55;8.70;99.90
14182;DHT22;7171;50.936;6.764;2023-01-09T15:53:24;8.70;99.90
14182;DHT22;7171;50.936;6.764;2023-01-09T15:56:05;8.80;99.90
14182;DHT22;7171;50.936;6.764;2023-01-09T15:58:34;8.60;99.90
14182;DHT22;7171;50.936;6.764;2023-01-09T16:01:04;8.80;99.90
14182;DHT22;7171;50.936;6.764;2023-01-09T16:03:35;8.70;99.90
14182;DHT22;7171;50.936;6.764;2023-01-09T16:06:09;8.70;99.90
14182;DHT22;7171;50.936;6.764;2023-01-09T16:08:40;8.70;99.90
14182;DHT22;7171;50.936;6.764;2023-01-09T16:11:08;8.70;99.90
14182;DHT22;7171;50.936;6.764;2023-01-09T16:13:46;8.70;99.90
14182;DHT22;7171;50.936;6.764;2023-01-09T16:16:22;8.70;99.90
14182;DHT22;7171;50.936;6.764;2023-01-09T16:18:51;8.80;99.90
14182;DHT22;7171;50.936;6.764;2023-01-09T16:30:54;8.60;99.90
14182;DHT22;7171;50.936;6.764;2023-01-09T16:38:29;8.20;99.90
14182;DHT22;7171;50.936;6.764;2023-01-09T16:41:00;8.10;99.90
14182;DHT22;7171;50.936;6.764;2023-01-09T16:43:45;8.10;99.90
14182;DHT22;7171;50.936;6.764;2023-01-09T16:46:12;8.10;99.90
14182;DHT22;7171;50.936;6.764;2023-01-09T16:48:40;8.10;99.90
14182;DHT22;7171;50.936;6.764;2023-01-09T16:51:13;8.10;99.90
14182;DHT22;7171;50.936;6.764;2023-01-09T16:53:41;8.20;99.90
14182;DHT22;7171;50.936;6.764;2023-01-09T16:56:13;8.20;99.90
14182;DHT22;7171;50.936;6.764;2023-01-09T16:58:42;8.20;99.90